createdAt,value
2022-11-10T00:03:36.673Z,0.50
2022-11-10T00:08:58.353Z,0.38
2022-11-10T00:14:38.861Z,0.60
2022-11-10T00:20:00.963Z,0.93
2022-11-10T00:25:23.421Z,0.80
2022-11-10T00:30:46.929Z,0.40
2022-11-10T00:36:09.179Z,0.43
2022-11-10T00:41:30.899Z,0.40
2022-11-10T00:46:52.561Z,0.50
2022-11-10T00:52:14.277Z,0.60
2022-11-10T00:57:35.915Z,0.65
2022-11-10T01:02:57.661Z,0.50
2022-11-10T01:08:19.329Z,0.57
2022-11-10T01:13:41.723Z,1.20
2022-11-10T01:19:05.144Z,0.45
2022-11-10T01:24:27.495Z,0.60
2022-11-10T01:29:49.157Z,0.50
2022-11-10T01:35:10.878Z,0.50
2022-11-10T01:40:32.612Z,0.30
2022-11-10T01:46:01.238Z,0.52
2022-11-10T01:51:41.510Z,0.77
2022-11-10T01:57:07.124Z,0.50
2022-11-10T02:08:00.570Z,0.50
2022-11-10T02:13:22.668Z,0.40
2022-11-10T02:18:44.701Z,0.50
2022-11-10T02:24:06.478Z,0.63
2022-11-10T02:29:28.137Z,0.52
2022-11-10T02:34:49.870Z,0.47
2022-11-10T02:40:11.913Z,0.57
2022-11-10T02:45:33.692Z,0.57
2022-11-10T02:50:55.337Z,0.40
2022-11-10T02:56:17.229Z,0.45
2022-11-10T03:01:39.241Z,0.60
2022-11-10T03:07:01.015Z,0.57
2022-11-10T03:12:22.774Z,0.50
2022-11-10T03:17:44.433Z,0.40
2022-11-10T03:23:06.203Z,0.60
2022-11-10T03:28:27.869Z,0.50
2022-11-10T03:33:49.578Z,0.50
2022-11-10T03:39:11.219Z,0.80
2022-11-10T03:44:32.887Z,0.50
2022-11-10T03:49:54.523Z,0.50
2022-11-10T03:55:18.858Z,0.55
2022-11-10T04:00:40.551Z,0.70
2022-11-10T04:06:20.604Z,0.60
2022-11-10T04:12:00.686Z,0.45
2022-11-10T04:17:22.315Z,0.60
2022-11-10T04:23:02.265Z,0.40
2022-11-10T04:28:23.960Z,0.40
2022-11-10T04:33:46.267Z,0.40
2022-11-10T04:39:08.905Z,0.43
2022-11-10T04:44:30.574Z,0.50
2022-11-10T04:49:52.208Z,0.55
2022-11-10T04:55:13.970Z,0.40
2022-11-10T05:00:36.815Z,0.50
2022-11-10T05:05:58.553Z,0.65
2022-11-10T05:11:20.287Z,0.32
2022-11-10T05:16:41.970Z,0.40
2022-11-10T05:22:03.731Z,0.40
2022-11-10T05:27:25.404Z,0.60
2022-11-10T05:32:47.077Z,0.47
2022-11-10T05:38:08.737Z,0.50
2022-11-10T05:43:30.430Z,0.30
2022-11-10T05:48:52.285Z,0.47
2022-11-10T05:54:13.921Z,0.50
2022-11-10T05:59:35.580Z,0.60
2022-11-10T06:04:57.237Z,0.40
2022-11-10T06:10:19.435Z,0.50
2022-11-10T06:15:42.969Z,0.32
2022-11-10T06:21:08.279Z,0.30
2022-11-10T06:26:30.027Z,0.40
2022-11-10T06:31:51.680Z,0.30
2022-11-10T06:37:13.365Z,0.60
2022-11-10T06:42:36.030Z,0.50
2022-11-10T06:48:15.682Z,0.30
2022-11-10T06:53:37.340Z,0.50
2022-11-10T06:58:59.065Z,0.70
2022-11-10T07:04:21.170Z,0.30
2022-11-10T07:09:43.011Z,0.40
2022-11-10T07:15:05.746Z,0.70
2022-11-10T07:20:28.627Z,0.47
2022-11-10T07:25:50.442Z,0.70
2022-11-10T07:31:12.129Z,0.57
2022-11-10T07:36:33.918Z,0.38
2022-11-10T07:41:55.684Z,0.73
2022-11-10T07:47:17.325Z,0.50
2022-11-10T07:52:39.143Z,0.75
2022-11-10T07:58:01.032Z,0.60
2022-11-10T08:03:23.120Z,0.75
2022-11-10T08:08:47.957Z,0.45
2022-11-10T08:14:09.623Z,0.77
2022-11-10T08:19:31.355Z,0.60
2022-11-10T08:24:53.024Z,0.55
2022-11-10T08:30:14.956Z,0.80
2022-11-10T08:35:39.682Z,0.85
2022-11-10T08:41:01.319Z,0.90
2022-11-10T08:46:22.953Z,0.60
2022-11-10T08:51:44.608Z,0.70
2022-11-10T08:57:06.330Z,0.63
2022-11-10T09:02:28.063Z,0.50
2022-11-10T09:07:51.247Z,0.50
2022-11-10T09:13:15.158Z,0.50
2022-11-10T09:18:36.830Z,0.50
2022-11-10T09:23:58.577Z,0.55
2022-11-10T09:29:20.432Z,0.80
2022-11-10T09:34:44.168Z,0.85
2022-11-10T09:40:17.780Z,1.15
2022-11-10T09:45:44.007Z,0.77
2022-11-10T09:51:19.773Z,1.13
2022-11-10T09:56:41.873Z,0.73
2022-11-10T10:02:40.349Z,0.95
2022-11-10T10:08:06.751Z,0.98
2022-11-10T10:13:37.278Z,1.52
2022-11-10T10:19:17.430Z,0.98
2022-11-10T10:24:39.973Z,1.00
2022-11-10T10:30:06.224Z,0.85
2022-11-10T10:35:28.636Z,0.82
2022-11-10T10:40:52.873Z,1.00
2022-11-10T10:46:16.125Z,0.90
2022-11-10T10:51:37.781Z,0.77
2022-11-10T10:57:05.229Z,1.10
2022-11-10T11:02:35.140Z,1.13
2022-11-10T11:08:04.887Z,1.00
2022-11-10T11:13:28.119Z,1.10
2022-11-10T11:18:50.832Z,0.88
2022-11-10T11:24:41.592Z,0.80
2022-11-10T11:30:17.607Z,1.17
2022-11-10T11:35:50.574Z,0.85
2022-11-10T11:41:12.206Z,0.68
2022-11-10T11:46:49.337Z,1.00
2022-11-10T11:52:22.376Z,0.70
2022-11-10T11:57:53.575Z,0.88
2022-11-10T12:03:44.352Z,0.80
2022-11-10T12:09:22.546Z,0.75
2022-11-10T12:15:20.010Z,0.98
2022-11-10T12:20:44.681Z,0.80
2022-11-10T12:26:29.359Z,1.07
2022-11-10T12:31:55.275Z,0.70
2022-11-10T12:37:28.451Z,0.88
2022-11-10T12:42:59.811Z,0.90
2022-11-10T12:48:22.923Z,0.65
2022-11-10T12:53:47.065Z,0.60
2022-11-10T12:59:20.705Z,0.70
2022-11-10T13:04:42.564Z,0.70
2022-11-10T13:10:19.281Z,0.75
2022-11-10T13:15:47.446Z,0.80
2022-11-10T13:21:09.191Z,0.77
2022-11-10T13:26:39.859Z,0.80
2022-11-10T13:32:07.495Z,0.70
2022-11-10T13:37:35.019Z,0.70
2022-11-10T13:42:59.453Z,0.77
2022-11-10T13:48:28.871Z,0.60
2022-11-10T13:54:11.637Z,0.75
2022-11-10T13:59:45.375Z,0.50
2022-11-10T14:05:09.605Z,0.35
2022-11-10T14:10:56.187Z,0.40
2022-11-10T14:16:23.360Z,0.60
2022-11-10T14:21:59.460Z,0.50
2022-11-10T14:27:27.628Z,0.60
2022-11-10T14:33:06.993Z,0.50
2022-11-10T14:38:34.038Z,0.68
2022-11-10T14:44:12.948Z,0.68
2022-11-10T14:49:34.701Z,0.43
2022-11-10T14:54:56.606Z,0.50
2022-11-10T15:00:25.257Z,0.50
2022-11-10T15:05:48.480Z,0.60
2022-11-10T15:11:40.610Z,0.50
2022-11-10T15:17:04.195Z,0.75
2022-11-10T15:22:35.739Z,0.50
2022-11-10T15:28:04.351Z,0.60
2022-11-10T15:33:30.100Z,0.35
2022-11-10T15:39:28.253Z,0.30
2022-11-10T15:44:50.010Z,0.40
2022-11-10T15:50:12.568Z,0.40
2022-11-10T15:55:35.634Z,0.60
2022-11-10T16:00:57.321Z,0.30
2022-11-10T16:06:19.060Z,0.25
2022-11-10T16:11:44.756Z,0.55
2022-11-10T16:17:09.159Z,0.47
2022-11-10T16:22:30.824Z,0.47
2022-11-10T16:27:52.568Z,0.40
2022-11-10T16:33:16.605Z,0.40
2022-11-10T16:38:38.322Z,0.52
2022-11-10T16:44:00.023Z,0.55
2022-11-10T16:49:35.782Z,0.50
2022-11-10T16:54:57.437Z,0.68
2022-11-10T17:00:19.862Z,0.50
2022-11-10T17:05:41.771Z,0.50
2022-11-10T17:11:03.474Z,0.60
2022-11-10T17:16:38.936Z,0.80
2022-11-10T17:22:00.626Z,1.43
2022-11-10T17:27:22.360Z,1.45
2022-11-10T17:33:04.086Z,2.13
2022-11-10T17:38:28.384Z,2.85
2022-11-10T17:43:50.097Z,3.53
2022-11-10T17:49:11.916Z,3.97
2022-11-10T17:54:34.051Z,4.03
2022-11-10T17:59:56.148Z,4.22
2022-11-10T18:05:18.789Z,4.22
2022-11-10T18:10:47.802Z,3.42
2022-11-10T18:16:11.933Z,3.03
2022-11-10T18:21:33.600Z,2.40
2022-11-10T18:26:55.339Z,2.83
2022-11-10T18:32:16.978Z,2.40
2022-11-10T18:37:39.378Z,2.45
2022-11-10T18:43:06.116Z,2.47
2022-11-10T18:48:32.147Z,2.25
2022-11-10T18:53:58.617Z,1.90
2022-11-10T18:59:20.386Z,1.95
2022-11-10T19:04:42.097Z,2.53
2022-11-10T19:10:04.253Z,1.95
2022-11-10T19:15:26.017Z,2.58
2022-11-10T19:20:47.667Z,2.08
2022-11-10T19:26:10.836Z,2.05
2022-11-10T19:31:32.546Z,1.70
2022-11-10T19:36:54.512Z,1.50
2022-11-10T19:42:16.262Z,2.05
2022-11-10T19:47:37.974Z,1.65
2022-11-10T19:52:59.730Z,1.52
2022-11-10T19:58:21.458Z,1.60
2022-11-10T20:03:43.652Z,1.70
2022-11-10T20:09:05.764Z,2.05
2022-11-10T20:14:28.001Z,2.33
2022-11-10T20:19:49.718Z,1.67
2022-11-10T20:25:11.440Z,1.30
2022-11-10T20:30:35.076Z,1.48
2022-11-10T20:36:02.773Z,1.85
2022-11-10T20:41:27.368Z,1.20
2022-11-10T20:46:54.555Z,1.53
2022-11-10T20:52:17.023Z,1.48
2022-11-10T20:57:38.696Z,1.40
2022-11-10T21:03:00.328Z,1.48
2022-11-10T21:08:22.370Z,0.90
2022-11-10T21:13:44.009Z,1.33
2022-11-10T21:19:06.519Z,1.27
2022-11-10T21:24:29.287Z,1.23
2022-11-10T21:29:50.984Z,1.30
2022-11-10T21:35:12.629Z,1.83
2022-11-10T21:40:34.421Z,1.50
2022-11-10T21:45:57.666Z,2.38
2022-11-10T21:51:22.359Z,1.70
2022-11-10T21:56:44.035Z,1.93
2022-11-10T22:02:06.620Z,2.00
2022-11-10T22:07:28.381Z,1.60
2022-11-10T22:13:08.519Z,1.85
2022-11-10T22:18:40.445Z,1.65
2022-11-10T22:24:21.133Z,1.13
2022-11-10T22:29:42.839Z,1.38
2022-11-10T22:35:04.817Z,1.50
2022-11-10T22:40:45.145Z,1.20
2022-11-10T22:46:06.782Z,1.00
2022-11-10T22:51:30.578Z,1.05
2022-11-10T22:56:52.554Z,0.90
2022-11-10T23:02:14.156Z,1.27
2022-11-10T23:07:35.845Z,0.95
2022-11-10T23:12:57.644Z,0.77
2022-11-10T23:18:19.388Z,0.90
2022-11-10T23:23:42.591Z,0.77
2022-11-10T23:29:04.248Z,0.68
2022-11-10T23:34:25.925Z,0.80
2022-11-10T23:39:47.567Z,0.73
2022-11-10T23:45:09.828Z,0.90
2022-11-10T23:50:31.522Z,1.02
2022-11-10T23:55:57.791Z,0.93
